sensor_id;sensor_type;location;lat;lon;timestamp;P1;durP1;ratioP1;P2;durP2;ratioP2
16824;SDS011;8529;48.108;-1.706;2022-07-04T00:01:28;5.00;;;2.20;;
16824;SDS011;8529;48.108;-1.706;2022-07-04T00:03:55;3.50;;;1.75;;
16824;SDS011;8529;48.108;-1.706;2022-07-04T00:06:23;6.30;;;2.30;;
16824;SDS011;8529;48.108;-1.706;2022-07-04T00:08:50;5.05;;;1.88;;
16824;SDS011;8529;48.108;-1.706;2022-07-04T00:11:17;5.88;;;2.45;;
16824;SDS011;8529;48.108;-1.706;2022-07-04T00:13:44;3.53;;;1.98;;
16824;SDS011;8529;48.108;-1.706;2022-07-04T00:16:11;6.47;;;2.15;;
16824;SDS011;8529;48.108;-1.706;2022-07-04T00:18:39;4.32;;;1.90;;
16824;SDS011;8529;48.108;-1.706;2022-07-04T00:21:06;2.35;;;1.85;;
16824;SDS011;8529;48.108;-1.706;2022-07-04T00:23:33;7.20;;;2.28;;
16824;SDS011;8529;48.108;-1.706;2022-07-04T00:26:00;9.25;;;2.80;;
16824;SDS011;8529;48.108;-1.706;2022-07-04T00:28:26;2.38;;;1.98;;
16824;SDS011;8529;48.108;-1.706;2022-07-04T00:30:53;4.68;;;2.25;;
16824;SDS011;8529;48.108;-1.706;2022-07-04T00:33:20;6.60;;;2.13;;
16824;SDS011;8529;48.108;-1.706;2022-07-04T00:35:49;5.95;;;2.25;;
16824;SDS011;8529;48.108;-1.706;2022-07-04T00:38:15;3.90;;;2.30;;
16824;SDS011;8529;48.108;-1.706;2022-07-04T00:40:42;5.95;;;2.53;;
16824;SDS011;8529;48.108;-1.706;2022-07-04T00:43:09;5.70;;;2.05;;
16824;SDS011;8529;48.108;-1.706;2022-07-04T00:45:36;4.35;;;2.08;;
16824;SDS011;8529;48.108;-1.706;2022-07-04T00:48:03;9.07;;;2.63;;
16824;SDS011;8529;48.108;-1.706;2022-07-04T00:50:30;4.38;;;1.80;;
16824;SDS011;8529;48.108;-1.706;2022-07-04T00:52:59;4.15;;;2.15;;
16824;SDS011;8529;48.108;-1.706;2022-07-04T00:55:27;5.70;;;1.90;;
16824;SDS011;8529;48.108;-1.706;2022-07-04T00:57:54;8.23;;;2.00;;
16824;SDS011;8529;48.108;-1.706;2022-07-04T01:00:21;7.10;;;2.53;;
16824;SDS011;8529;48.108;-1.706;2022-07-04T01:02:48;5.35;;;2.30;;
16824;SDS011;8529;48.108;-1.706;2022-07-04T01:05:15;3.97;;;1.65;;
16824;SDS011;8529;48.108;-1.706;2022-07-04T01:07:42;5.13;;;1.55;;
16824;SDS011;8529;48.108;-1.706;2022-07-04T01:10:11;8.35;;;2.10;;
16824;SDS011;8529;48.108;-1.706;2022-07-04T01:12:38;5.20;;;2.30;;
16824;SDS011;8529;48.108;-1.706;2022-07-04T01:15:05;4.63;;;2.08;;
16824;SDS011;8529;48.108;-1.706;2022-07-04T01:17:33;6.70;;;1.70;;
16824;SDS011;8529;48.108;-1.706;2022-07-04T01:20:01;5.13;;;1.85;;
16824;SDS011;8529;48.108;-1.706;2022-07-04T01:22:30;4.45;;;2.20;;
16824;SDS011;8529;48.108;-1.706;2022-07-04T01:24:57;5.72;;;1.70;;
16824;SDS011;8529;48.108;-1.706;2022-07-04T01:27:24;2.92;;;1.70;;
16824;SDS011;8529;48.108;-1.706;2022-07-04T01:29:51;3.38;;;1.75;;
16824;SDS011;8529;48.108;-1.706;2022-07-04T01:32:18;4.03;;;1.85;;
16824;SDS011;8529;48.108;-1.706;2022-07-04T01:34:45;5.18;;;2.08;;
16824;SDS011;8529;48.108;-1.706;2022-07-04T01:37:12;3.55;;;1.67;;
16824;SDS011;8529;48.108;-1.706;2022-07-04T01:39:40;7.05;;;2.30;;
16824;SDS011;8529;48.108;-1.706;2022-07-04T01:42:07;3.65;;;1.90;;
16824;SDS011;8529;48.108;-1.706;2022-07-04T01:44:34;4.32;;;2.40;;
16824;SDS011;8529;48.108;-1.706;2022-07-04T01:47:02;5.18;;;1.80;;
16824;SDS011;8529;48.108;-1.706;2022-07-04T01:49:30;3.13;;;2.20;;
16824;SDS011;8529;48.108;-1.706;2022-07-04T01:51:57;5.88;;;2.10;;
16824;SDS011;8529;48.108;-1.706;2022-07-04T01:54:24;3.75;;;1.90;;
16824;SDS011;8529;48.108;-1.706;2022-07-04T01:56:52;4.22;;;2.30;;
16824;SDS011;8529;48.108;-1.706;2022-07-04T01:59:19;4.65;;;1.73;;
16824;SDS011;8529;48.108;-1.706;2022-07-04T02:02:07;3.88;;;1.83;;
16824;SDS011;8529;48.108;-1.706;2022-07-04T02:04:33;2.90;;;1.50;;
16824;SDS011;8529;48.108;-1.706;2022-07-04T02:07:00;4.32;;;1.80;;
16824;SDS011;8529;48.108;-1.706;2022-07-04T02:09:27;4.55;;;1.67;;
16824;SDS011;8529;48.108;-1.706;2022-07-04T02:11:57;4.55;;;1.90;;
16824;SDS011;8529;48.108;-1.706;2022-07-04T02:14:42;1.95;;;1.77;;
16824;SDS011;8529;48.108;-1.706;2022-07-04T02:17:09;5.35;;;1.98;;
16824;SDS011;8529;48.108;-1.706;2022-07-04T02:19:35;4.43;;;1.98;;
16824;SDS011;8529;48.108;-1.706;2022-07-04T02:22:03;2.60;;;1.65;;
16824;SDS011;8529;48.108;-1.706;2022-07-04T02:24:30;6.25;;;1.80;;
16824;SDS011;8529;48.108;-1.706;2022-07-04T02:26:59;3.20;;;1.40;;
16824;SDS011;8529;48.108;-1.706;2022-07-04T02:29:25;6.40;;;2.22;;
16824;SDS011;8529;48.108;-1.706;2022-07-04T02:31:52;4.28;;;1.75;;
16824;SDS011;8529;48.108;-1.706;2022-07-04T02:34:19;2.08;;;1.45;;
16824;SDS011;8529;48.108;-1.706;2022-07-04T02:36:46;4.70;;;1.90;;
16824;SDS011;8529;48.108;-1.706;2022-07-04T02:39:13;3.80;;;1.60;;
16824;SDS011;8529;48.108;-1.706;2022-07-04T02:41:40;3.42;;;1.80;;
16824;SDS011;8529;48.108;-1.706;2022-07-04T02:44:09;4.00;;;1.70;;
16824;SDS011;8529;48.108;-1.706;2022-07-04T02:46:36;6.38;;;1.90;;
16824;SDS011;8529;48.108;-1.706;2022-07-04T02:49:03;9.00;;;1.52;;
16824;SDS011;8529;48.108;-1.706;2022-07-04T02:51:30;3.35;;;1.65;;
16824;SDS011;8529;48.108;-1.706;2022-07-04T02:53:57;2.80;;;1.60;;
16824;SDS011;8529;48.108;-1.706;2022-07-04T02:56:25;5.25;;;1.70;;
16824;SDS011;8529;48.108;-1.706;2022-07-04T02:58:52;4.30;;;1.65;;
16824;SDS011;8529;48.108;-1.706;2022-07-04T03:01:20;7.63;;;1.70;;
16824;SDS011;8529;48.108;-1.706;2022-07-04T03:03:48;8.48;;;2.95;;
16824;SDS011;8529;48.108;-1.706;2022-07-04T03:06:15;4.30;;;1.42;;
16824;SDS011;8529;48.108;-1.706;2022-07-04T03:08:42;9.98;;;1.92;;
16824;SDS011;8529;48.108;-1.706;2022-07-04T03:11:09;3.67;;;1.70;;
16824;SDS011;8529;48.108;-1.706;2022-07-04T03:13:36;2.47;;;1.38;;
16824;SDS011;8529;48.108;-1.706;2022-07-04T03:16:03;2.22;;;1.45;;
16824;SDS011;8529;48.108;-1.706;2022-07-04T03:18:32;2.50;;;1.60;;
16824;SDS011;8529;48.108;-1.706;2022-07-04T03:21:00;4.40;;;1.80;;
16824;SDS011;8529;48.108;-1.706;2022-07-04T03:23:29;4.20;;;1.80;;
16824;SDS011;8529;48.108;-1.706;2022-07-04T03:25:56;6.18;;;1.80;;
16824;SDS011;8529;48.108;-1.706;2022-07-04T03:28:23;2.08;;;1.70;;
16824;SDS011;8529;48.108;-1.706;2022-07-04T03:30:50;2.67;;;1.55;;
16824;SDS011;8529;48.108;-1.706;2022-07-04T03:33:17;4.78;;;1.48;;
16824;SDS011;8529;48.108;-1.706;2022-07-04T03:35:45;2.90;;;1.48;;
16824;SDS011;8529;48.108;-1.706;2022-07-04T03:38:12;2.10;;;1.38;;
16824;SDS011;8529;48.108;-1.706;2022-07-04T03:40:39;2.00;;;1.27;;
16824;SDS011;8529;48.108;-1.706;2022-07-04T03:43:06;5.38;;;1.90;;
16824;SDS011;8529;48.108;-1.706;2022-07-04T03:45:33;4.35;;;1.65;;
16824;SDS011;8529;48.108;-1.706;2022-07-04T03:48:00;3.05;;;1.75;;
16824;SDS011;8529;48.108;-1.706;2022-07-04T03:50:28;3.53;;;1.65;;
16824;SDS011;8529;48.108;-1.706;2022-07-04T03:52:56;4.35;;;1.60;;
16824;SDS011;8529;48.108;-1.706;2022-07-04T03:55:23;2.38;;;1.63;;
16824;SDS011;8529;48.108;-1.706;2022-07-04T03:57:50;3.05;;;1.70;;
16824;SDS011;8529;48.108;-1.706;2022-07-04T04:00:17;2.97;;;1.52;;
16824;SDS011;8529;48.108;-1.706;2022-07-04T04:02:44;3.03;;;1.88;;
16824;SDS011;8529;48.108;-1.706;2022-07-04T04:05:11;4.32;;;1.88;;
16824;SDS011;8529;48.108;-1.706;2022-07-04T04:07:53;6.60;;;1.67;;
16824;SDS011;8529;48.108;-1.706;2022-07-04T04:10:21;5.07;;;1.67;;
16824;SDS011;8529;48.108;-1.706;2022-07-04T04:12:49;3.53;;;1.65;;
16824;SDS011;8529;48.108;-1.706;2022-07-04T04:15:16;5.82;;;1.83;;
16824;SDS011;8529;48.108;-1.706;2022-07-04T04:17:43;3.75;;;1.60;;
16824;SDS011;8529;48.108;-1.706;2022-07-04T04:20:10;3.50;;;2.03;;
16824;SDS011;8529;48.108;-1.706;2022-07-04T04:22:37;3.75;;;1.60;;
16824;SDS011;8529;48.108;-1.706;2022-07-04T04:25:05;2.72;;;1.77;;
16824;SDS011;8529;48.108;-1.706;2022-07-04T04:27:34;3.20;;;1.75;;
16824;SDS011;8529;48.108;-1.706;2022-07-04T04:30:01;4.55;;;2.00;;
16824;SDS011;8529;48.108;-1.706;2022-07-04T04:32:28;4.65;;;1.85;;
16824;SDS011;8529;48.108;-1.706;2022-07-04T04:34:55;5.05;;;1.52;;
16824;SDS011;8529;48.108;-1.706;2022-07-04T04:37:23;6.28;;;2.10;;
16824;SDS011;8529;48.108;-1.706;2022-07-04T04:39:50;4.90;;;1.90;;
16824;SDS011;8529;48.108;-1.706;2022-07-04T04:42:17;4.13;;;1.98;;
16824;SDS011;8529;48.108;-1.706;2022-07-04T04:44:45;5.18;;;1.60;;
16824;SDS011;8529;48.108;-1.706;2022-07-04T04:47:12;4.13;;;2.00;;
16824;SDS011;8529;48.108;-1.706;2022-07-04T04:49:39;5.28;;;2.05;;
16824;SDS011;8529;48.108;-1.706;2022-07-04T04:52:06;4.05;;;1.67;;
16824;SDS011;8529;48.108;-1.706;2022-07-04T04:54:33;4.97;;;1.83;;
16824;SDS011;8529;48.108;-1.706;2022-07-04T04:57:00;4.35;;;1.85;;
16824;SDS011;8529;48.108;-1.706;2022-07-04T04:59:27;5.72;;;2.10;;
16824;SDS011;8529;48.108;-1.706;2022-07-04T05:01:56;2.63;;;1.85;;
16824;SDS011;8529;48.108;-1.706;2022-07-04T05:04:23;5.15;;;1.83;;
16824;SDS011;8529;48.108;-1.706;2022-07-04T05:06:50;5.85;;;2.08;;
16824;SDS011;8529;48.108;-1.706;2022-07-04T05:09:18;3.50;;;2.00;;
16824;SDS011;8529;48.108;-1.706;2022-07-04T05:11:45;5.43;;;2.28;;
16824;SDS011;8529;48.108;-1.706;2022-07-04T05:14:12;5.50;;;1.83;;
16824;SDS011;8529;48.108;-1.706;2022-07-04T05:16:39;4.43;;;1.70;;
16824;SDS011;8529;48.108;-1.706;2022-07-04T05:19:08;3.58;;;2.00;;
16824;SDS011;8529;48.108;-1.706;2022-07-04T05:21:35;3.25;;;1.73;;
16824;SDS011;8529;48.108;-1.706;2022-07-04T05:24:02;4.05;;;2.10;;
16824;SDS011;8529;48.108;-1.706;2022-07-04T05:26:29;3.97;;;1.85;;
16824;SDS011;8529;48.108;-1.706;2022-07-04T05:28:56;5.38;;;1.88;;
16824;SDS011;8529;48.108;-1.706;2022-07-04T05:31:22;7.18;;;2.35;;
16824;SDS011;8529;48.108;-1.706;2022-07-04T05:33:49;4.38;;;2.25;;
16824;SDS011;8529;48.108;-1.706;2022-07-04T05:36:18;7.32;;;1.85;;
16824;SDS011;8529;48.108;-1.706;2022-07-04T05:38:45;4.70;;;2.67;;
16824;SDS011;8529;48.108;-1.706;2022-07-04T05:41:12;4.90;;;2.20;;
16824;SDS011;8529;48.108;-1.706;2022-07-04T05:43:39;3.72;;;1.85;;
16824;SDS011;8529;48.108;-1.706;2022-07-04T05:46:06;8.65;;;2.40;;
16824;SDS011;8529;48.108;-1.706;2022-07-04T05:48:34;3.17;;;1.90;;
16824;SDS011;8529;48.108;-1.706;2022-07-04T05:51:01;3.42;;;2.13;;
16824;SDS011;8529;48.108;-1.706;2022-07-04T05:53:30;6.25;;;2.33;;
16824;SDS011;8529;48.108;-1.706;2022-07-04T05:55:57;5.05;;;1.85;;
16824;SDS011;8529;48.108;-1.706;2022-07-04T05:58:24;5.18;;;1.85;;
16824;SDS011;8529;48.108;-1.706;2022-07-04T06:00:50;6.43;;;2.40;;
16824;SDS011;8529;48.108;-1.706;2022-07-04T06:03:17;3.28;;;2.03;;
16824;SDS011;8529;48.108;-1.706;2022-07-04T06:05:44;10.18;;;2.17;;
16824;SDS011;8529;48.108;-1.706;2022-07-04T06:08:11;6.65;;;2.30;;
16824;SDS011;8529;48.108;-1.706;2022-07-04T06:10:40;5.43;;;2.35;;
16824;SDS011;8529;48.108;-1.706;2022-07-04T06:13:07;3.63;;;1.70;;
16824;SDS011;8529;48.108;-1.706;2022-07-04T06:15:33;3.55;;;1.73;;
16824;SDS011;8529;48.108;-1.706;2022-07-04T06:18:01;4.22;;;1.60;;
16824;SDS011;8529;48.108;-1.706;2022-07-04T06:20:28;4.22;;;1.58;;
16824;SDS011;8529;48.108;-1.706;2022-07-04T06:22:55;5.18;;;1.73;;
16824;SDS011;8529;48.108;-1.706;2022-07-04T06:25:22;4.10;;;2.13;;
16824;SDS011;8529;48.108;-1.706;2022-07-04T06:27:50;4.00;;;1.75;;
16824;SDS011;8529;48.108;-1.706;2022-07-04T06:30:18;4.38;;;1.67;;
16824;SDS011;8529;48.108;-1.706;2022-07-04T06:32:45;2.40;;;2.08;;
16824;SDS011;8529;48.108;-1.706;2022-07-04T06:35:17;4.10;;;2.58;;
16824;SDS011;8529;48.108;-1.706;2022-07-04T06:38:03;4.47;;;1.90;;
16824;SDS011;8529;48.108;-1.706;2022-07-04T06:40:30;5.38;;;1.88;;
16824;SDS011;8529;48.108;-1.706;2022-07-04T06:42:58;5.35;;;2.15;;
16824;SDS011;8529;48.108;-1.706;2022-07-04T06:45:25;8.60;;;2.80;;
16824;SDS011;8529;48.108;-1.706;2022-07-04T06:47:52;5.28;;;2.20;;
16824;SDS011;8529;48.108;-1.706;2022-07-04T06:50:19;6.40;;;2.10;;
16824;SDS011;8529;48.108;-1.706;2022-07-04T06:52:46;5.10;;;1.50;;
16824;SDS011;8529;48.108;-1.706;2022-07-04T06:55:13;3.47;;;1.42;;
16824;SDS011;8529;48.108;-1.706;2022-07-04T06:57:43;3.67;;;1.20;;
16824;SDS011;8529;48.108;-1.706;2022-07-04T07:00:12;3.35;;;1.20;;
16824;SDS011;8529;48.108;-1.706;2022-07-04T07:02:39;4.22;;;1.33;;
16824;SDS011;8529;48.108;-1.706;2022-07-04T07:05:06;2.58;;;1.17;;
16824;SDS011;8529;48.108;-1.706;2022-07-04T07:07:34;2.08;;;1.73;;
16824;SDS011;8529;48.108;-1.706;2022-07-04T07:10:01;2.03;;;1.10;;
16824;SDS011;8529;48.108;-1.706;2022-07-04T07:12:31;3.05;;;1.23;;
16824;SDS011;8529;48.108;-1.706;2022-07-04T07:14:58;4.32;;;1.50;;
16824;SDS011;8529;48.108;-1.706;2022-07-04T07:17:27;2.70;;;1.20;;
16824;SDS011;8529;48.108;-1.706;2022-07-04T07:19:54;3.25;;;1.50;;
16824;SDS011;8529;48.108;-1.706;2022-07-04T07:22:22;1.95;;;1.05;;
16824;SDS011;8529;48.108;-1.706;2022-07-04T07:24:49;3.63;;;1.40;;
16824;SDS011;8529;48.108;-1.706;2022-07-04T07:27:16;6.25;;;1.90;;
16824;SDS011;8529;48.108;-1.706;2022-07-04T07:29:43;3.58;;;1.83;;
16824;SDS011;8529;48.108;-1.706;2022-07-04T07:32:10;5.80;;;1.65;;
16824;SDS011;8529;48.108;-1.706;2022-07-04T07:34:38;4.53;;;1.48;;
16824;SDS011;8529;48.108;-1.706;2022-07-04T07:37:05;2.97;;;1.10;;
16824;SDS011;8529;48.108;-1.706;2022-07-04T07:39:32;4.63;;;1.60;;
16824;SDS011;8529;48.108;-1.706;2022-07-04T07:41:59;2.28;;;1.30;;
16824;SDS011;8529;48.108;-1.706;2022-07-04T07:44:26;2.20;;;1.25;;
16824;SDS011;8529;48.108;-1.706;2022-07-04T07:46:53;4.53;;;1.23;;
16824;SDS011;8529;48.108;-1.706;2022-07-04T07:49:21;5.93;;;1.52;;
16824;SDS011;8529;48.108;-1.706;2022-07-04T07:51:49;2.83;;;1.15;;
16824;SDS011;8529;48.108;-1.706;2022-07-04T07:54:16;5.97;;;1.40;;
16824;SDS011;8529;48.108;-1.706;2022-07-04T07:56:43;3.10;;;1.35;;
16824;SDS011;8529;48.108;-1.706;2022-07-04T07:59:10;3.03;;;1.20;;
16824;SDS011;8529;48.108;-1.706;2022-07-04T08:01:37;6.25;;;1.50;;
16824;SDS011;8529;48.108;-1.706;2022-07-04T08:04:04;3.63;;;1.25;;
16824;SDS011;8529;48.108;-1.706;2022-07-04T08:06:50;4.85;;;1.85;;
16824;SDS011;8529;48.108;-1.706;2022-07-04T08:09:17;2.42;;;1.17;;
16824;SDS011;8529;48.108;-1.706;2022-07-04T08:11:44;5.30;;;1.92;;
16824;SDS011;8529;48.108;-1.706;2022-07-04T08:14:11;9.55;;;1.90;;
16824;SDS011;8529;48.108;-1.706;2022-07-04T08:16:38;4.13;;;1.55;;
16824;SDS011;8529;48.108;-1.706;2022-07-04T08:19:06;7.43;;;1.92;;
16824;SDS011;8529;48.108;-1.706;2022-07-04T08:21:33;4.95;;;1.25;;
16824;SDS011;8529;48.108;-1.706;2022-07-04T08:24:01;4.90;;;1.35;;
16824;SDS011;8529;48.108;-1.706;2022-07-04T08:26:29;4.03;;;1.23;;
16824;SDS011;8529;48.108;-1.706;2022-07-04T08:28:56;4.03;;;1.20;;
16824;SDS011;8529;48.108;-1.706;2022-07-04T08:31:24;3.80;;;1.00;;
16824;SDS011;8529;48.108;-1.706;2022-07-04T08:33:51;5.75;;;1.38;;
16824;SDS011;8529;48.108;-1.706;2022-07-04T08:36:19;3.08;;;1.05;;
16824;SDS011;8529;48.108;-1.706;2022-07-04T08:38:45;2.05;;;1.00;;
16824;SDS011;8529;48.108;-1.706;2022-07-04T08:41:14;10.13;;;2.03;;
16824;SDS011;8529;48.108;-1.706;2022-07-04T08:43:42;1.95;;;1.30;;
16824;SDS011;8529;48.108;-1.706;2022-07-04T08:46:10;2.42;;;1.10;;
16824;SDS011;8529;48.108;-1.706;2022-07-04T08:48:40;2.38;;;1.27;;
16824;SDS011;8529;48.108;-1.706;2022-07-04T08:51:09;6.82;;;1.45;;
16824;SDS011;8529;48.108;-1.706;2022-07-04T08:53:42;2.53;;;1.20;;
16824;SDS011;8529;48.108;-1.706;2022-07-04T08:56:17;1.92;;;0.90;;
16824;SDS011;8529;48.108;-1.706;2022-07-04T08:59:03;3.05;;;0.85;;
16824;SDS011;8529;48.108;-1.706;2022-07-04T09:01:31;8.23;;;1.60;;
16824;SDS011;8529;48.108;-1.706;2022-07-04T09:03:59;2.75;;;1.17;;
16824;SDS011;8529;48.108;-1.706;2022-07-04T09:06:27;1.65;;;1.10;;
16824;SDS011;8529;48.108;-1.706;2022-07-04T09:08:54;1.38;;;0.98;;
16824;SDS011;8529;48.108;-1.706;2022-07-04T09:11:22;4.22;;;1.10;;
16824;SDS011;8529;48.108;-1.706;2022-07-04T09:13:49;10.20;;;2.00;;
16824;SDS011;8529;48.108;-1.706;2022-07-04T09:16:16;6.97;;;1.35;;
16824;SDS011;8529;48.108;-1.706;2022-07-04T09:18:43;5.90;;;1.20;;
16824;SDS011;8529;48.108;-1.706;2022-07-04T09:21:10;3.38;;;1.35;;
16824;SDS011;8529;48.108;-1.706;2022-07-04T09:23:39;10.48;;;1.38;;
16824;SDS011;8529;48.108;-1.706;2022-07-04T09:26:08;2.80;;;1.00;;
16824;SDS011;8529;48.108;-1.706;2022-07-04T09:28:42;2.67;;;1.00;;
16824;SDS011;8529;48.108;-1.706;2022-07-04T09:31:13;0.85;;;0.73;;
16824;SDS011;8529;48.108;-1.706;2022-07-04T09:33:45;1.70;;;1.08;;
16824;SDS011;8529;48.108;-1.706;2022-07-04T09:36:18;3.65;;;1.10;;
16824;SDS011;8529;48.108;-1.706;2022-07-04T09:38:48;2.63;;;1.10;;
16824;SDS011;8529;48.108;-1.706;2022-07-04T09:41:31;2.28;;;1.08;;
16824;SDS011;8529;48.108;-1.706;2022-07-04T09:44:16;2.22;;;0.77;;
16824;SDS011;8529;48.108;-1.706;2022-07-04T09:46:44;4.45;;;0.90;;
16824;SDS011;8529;48.108;-1.706;2022-07-04T09:49:11;2.25;;;0.98;;
16824;SDS011;8529;48.108;-1.706;2022-07-04T09:51:38;2.42;;;0.90;;
16824;SDS011;8529;48.108;-1.706;2022-07-04T09:54:17;5.68;;;1.58;;
16824;SDS011;8529;48.108;-1.706;2022-07-04T09:56:47;1.75;;;0.70;;
16824;SDS011;8529;48.108;-1.706;2022-07-04T09:59:17;2.03;;;1.08;;
16824;SDS011;8529;48.108;-1.706;2022-07-04T10:01:45;3.20;;;0.73;;
16824;SDS011;8529;48.108;-1.706;2022-07-04T10:04:12;4.00;;;1.00;;
16824;SDS011;8529;48.108;-1.706;2022-07-04T10:06:39;1.52;;;0.90;;
16824;SDS011;8529;48.108;-1.706;2022-07-04T10:09:08;2.78;;;0.77;;
16824;SDS011;8529;48.108;-1.706;2022-07-04T10:11:36;2.00;;;1.00;;
16824;SDS011;8529;48.108;-1.706;2022-07-04T10:14:05;2.50;;;1.00;;
16824;SDS011;8529;48.108;-1.706;2022-07-04T10:16:34;1.90;;;1.10;;
16824;SDS011;8529;48.108;-1.706;2022-07-04T10:19:02;1.10;;;0.85;;
16824;SDS011;8529;48.108;-1.706;2022-07-04T10:21:30;4.35;;;3.05;;
16824;SDS011;8529;48.108;-1.706;2022-07-04T10:23:57;2.20;;;1.10;;
16824;SDS011;8529;48.108;-1.706;2022-07-04T10:26:24;1.55;;;0.80;;
16824;SDS011;8529;48.108;-1.706;2022-07-04T10:28:53;1.40;;;1.00;;
16824;SDS011;8529;48.108;-1.706;2022-07-04T10:31:21;3.42;;;1.00;;
16824;SDS011;8529;48.108;-1.706;2022-07-04T10:33:51;2.70;;;1.05;;
16824;SDS011;8529;48.108;-1.706;2022-07-04T10:36:20;1.85;;;0.98;;
16824;SDS011;8529;48.108;-1.706;2022-07-04T10:38:49;0.75;;;0.73;;
16824;SDS011;8529;48.108;-1.706;2022-07-04T10:41:17;1.48;;;0.80;;
16824;SDS011;8529;48.108;-1.706;2022-07-04T10:43:56;2.33;;;0.93;;
16824;SDS011;8529;48.108;-1.706;2022-07-04T10:49:26;1.38;;;0.88;;
16824;SDS011;8529;48.108;-1.706;2022-07-04T10:51:55;1.83;;;1.17;;
16824;SDS011;8529;48.108;-1.706;2022-07-04T10:54:33;2.83;;;0.63;;
16824;SDS011;8529;48.108;-1.706;2022-07-04T10:57:08;2.80;;;0.88;;
16824;SDS011;8529;48.108;-1.706;2022-07-04T10:59:37;3.08;;;1.00;;
16824;SDS011;8529;48.108;-1.706;2022-07-04T11:02:21;1.27;;;0.68;;
16824;SDS011;8529;48.108;-1.706;2022-07-04T11:05:00;3.50;;;0.80;;
16824;SDS011;8529;48.108;-1.706;2022-07-04T11:10:31;2.70;;;1.10;;
16824;SDS011;8529;48.108;-1.706;2022-07-04T11:13:16;2.78;;;0.80;;
16824;SDS011;8529;48.108;-1.706;2022-07-04T11:15:59;3.33;;;1.27;;
16824;SDS011;8529;48.108;-1.706;2022-07-04T11:18:27;1.55;;;0.80;;
16824;SDS011;8529;48.108;-1.706;2022-07-04T11:20:57;3.35;;;0.80;;
16824;SDS011;8529;48.108;-1.706;2022-07-04T11:23:23;9.65;;;1.45;;
16824;SDS011;8529;48.108;-1.706;2022-07-04T11:25:51;1.98;;;0.52;;
16824;SDS011;8529;48.108;-1.706;2022-07-04T11:28:21;1.75;;;0.88;;
16824;SDS011;8529;48.108;-1.706;2022-07-04T11:30:49;1.17;;;0.80;;
16824;SDS011;8529;48.108;-1.706;2022-07-04T11:33:17;2.28;;;0.90;;
16824;SDS011;8529;48.108;-1.706;2022-07-04T11:38:54;3.78;;;1.00;;
16824;SDS011;8529;48.108;-1.706;2022-07-04T11:41:24;3.55;;;0.93;;
16824;SDS011;8529;48.108;-1.706;2022-07-04T11:44:10;3.47;;;0.90;;
16824;SDS011;8529;48.108;-1.706;2022-07-04T11:47:06;1.75;;;1.25;;
16824;SDS011;8529;48.108;-1.706;2022-07-04T11:49:42;1.80;;;0.68;;
16824;SDS011;8529;48.108;-1.706;2022-07-04T11:52:11;1.42;;;0.85;;
16824;SDS011;8529;48.108;-1.706;2022-07-04T11:54:40;2.90;;;0.70;;
16824;SDS011;8529;48.108;-1.706;2022-07-04T11:57:18;0.75;;;0.65;;
16824;SDS011;8529;48.108;-1.706;2022-07-04T11:59:54;1.23;;;0.70;;
16824;SDS011;8529;48.108;-1.706;2022-07-04T12:02:22;1.73;;;0.70;;
16824;SDS011;8529;48.108;-1.706;2022-07-04T12:04:50;2.78;;;0.80;;
16824;SDS011;8529;48.108;-1.706;2022-07-04T12:07:17;2.25;;;0.93;;
16824;SDS011;8529;48.108;-1.706;2022-07-04T12:09:47;1.20;;;0.73;;
16824;SDS011;8529;48.108;-1.706;2022-07-04T12:12:14;2.03;;;0.68;;
16824;SDS011;8529;48.108;-1.706;2022-07-04T12:17:29;5.70;;;0.70;;
16824;SDS011;8529;48.108;-1.706;2022-07-04T12:19:57;0.73;;;0.60;;
16824;SDS011;8529;48.108;-1.706;2022-07-04T12:22:30;1.70;;;0.80;;
16824;SDS011;8529;48.108;-1.706;2022-07-04T12:25:00;1.52;;;0.90;;
16824;SDS011;8529;48.108;-1.706;2022-07-04T12:27:27;1.30;;;1.00;;
16824;SDS011;8529;48.108;-1.706;2022-07-04T12:29:56;2.80;;;0.73;;
16824;SDS011;8529;48.108;-1.706;2022-07-04T12:37:59;1.25;;;0.80;;
16824;SDS011;8529;48.108;-1.706;2022-07-04T12:40:32;1.27;;;0.60;;
16824;SDS011;8529;48.108;-1.706;2022-07-04T12:42:59;2.90;;;0.85;;
16824;SDS011;8529;48.108;-1.706;2022-07-04T12:45:26;2.92;;;0.70;;
16824;SDS011;8529;48.108;-1.706;2022-07-04T12:48:17;2.78;;;0.68;;
16824;SDS011;8529;48.108;-1.706;2022-07-04T12:50:46;2.33;;;0.82;;
16824;SDS011;8529;48.108;-1.706;2022-07-04T12:53:13;1.30;;;0.63;;
16824;SDS011;8529;48.108;-1.706;2022-07-04T12:55:42;1.63;;;0.75;;
16824;SDS011;8529;48.108;-1.706;2022-07-04T12:58:10;0.88;;;0.60;;
16824;SDS011;8529;48.108;-1.706;2022-07-04T13:00:38;5.25;;;1.00;;
16824;SDS011;8529;48.108;-1.706;2022-07-04T13:03:06;1.85;;;0.70;;
16824;SDS011;8529;48.108;-1.706;2022-07-04T13:05:33;1.63;;;0.57;;
16824;SDS011;8529;48.108;-1.706;2022-07-04T13:08:02;2.25;;;0.60;;
16824;SDS011;8529;48.108;-1.706;2022-07-04T13:10:29;1.85;;;0.70;;
16824;SDS011;8529;48.108;-1.706;2022-07-04T13:12:59;1.20;;;0.80;;
16824;SDS011;8529;48.108;-1.706;2022-07-04T13:15:26;0.60;;;0.50;;
16824;SDS011;8529;48.108;-1.706;2022-07-04T13:17:53;1.48;;;0.70;;
16824;SDS011;8529;48.108;-1.706;2022-07-04T13:20:20;2.03;;;0.60;;
16824;SDS011;8529;48.108;-1.706;2022-07-04T13:22:47;1.20;;;0.60;;
16824;SDS011;8529;48.108;-1.706;2022-07-04T13:25:14;2.50;;;0.70;;
16824;SDS011;8529;48.108;-1.706;2022-07-04T13:27:41;0.50;;;0.50;;
16824;SDS011;8529;48.108;-1.706;2022-07-04T13:30:10;3.17;;;0.90;;
16824;SDS011;8529;48.108;-1.706;2022-07-04T13:32:38;3.25;;;0.70;;
16824;SDS011;8529;48.108;-1.706;2022-07-04T13:35:05;0.95;;;0.85;;
16824;SDS011;8529;48.108;-1.706;2022-07-04T13:37:32;1.60;;;0.82;;
16824;SDS011;8529;48.108;-1.706;2022-07-04T13:39:59;1.55;;;0.68;;
16824;SDS011;8529;48.108;-1.706;2022-07-04T13:42:26;1.83;;;0.90;;
16824;SDS011;8529;48.108;-1.706;2022-07-04T13:45:12;0.93;;;0.60;;
16824;SDS011;8529;48.108;-1.706;2022-07-04T13:47:40;0.80;;;0.70;;
16824;SDS011;8529;48.108;-1.706;2022-07-04T13:50:08;2.35;;;0.90;;
16824;SDS011;8529;48.108;-1.706;2022-07-04T13:52:35;1.65;;;0.60;;
16824;SDS011;8529;48.108;-1.706;2022-07-04T13:55:03;2.30;;;0.60;;
16824;SDS011;8529;48.108;-1.706;2022-07-04T13:57:30;3.05;;;0.90;;
16824;SDS011;8529;48.108;-1.706;2022-07-04T13:59:57;0.90;;;0.60;;
16824;SDS011;8529;48.108;-1.706;2022-07-04T14:02:25;1.13;;;0.60;;
16824;SDS011;8529;48.108;-1.706;2022-07-04T14:04:52;2.40;;;0.70;;
16824;SDS011;8529;48.108;-1.706;2022-07-04T14:07:20;2.30;;;0.60;;
16824;SDS011;8529;48.108;-1.706;2022-07-04T14:09:47;2.85;;;0.70;;
16824;SDS011;8529;48.108;-1.706;2022-07-04T14:12:14;2.25;;;0.60;;
16824;SDS011;8529;48.108;-1.706;2022-07-04T14:14:41;0.95;;;0.65;;
16824;SDS011;8529;48.108;-1.706;2022-07-04T14:17:08;2.38;;;0.77;;
16824;SDS011;8529;48.108;-1.706;2022-07-04T14:19:37;1.65;;;0.70;;
16824;SDS011;8529;48.108;-1.706;2022-07-04T14:22:04;1.63;;;0.63;;
16824;SDS011;8529;48.108;-1.706;2022-07-04T14:24:31;2.85;;;0.80;;
16824;SDS011;8529;48.108;-1.706;2022-07-04T14:26:58;0.75;;;0.50;;
16824;SDS011;8529;48.108;-1.706;2022-07-04T14:29:25;0.88;;;0.82;;
16824;SDS011;8529;48.108;-1.706;2022-07-04T14:31:52;2.60;;;1.38;;
16824;SDS011;8529;48.108;-1.706;2022-07-04T14:34:19;0.95;;;0.60;;
16824;SDS011;8529;48.108;-1.706;2022-07-04T14:36:48;1.33;;;0.80;;
16824;SDS011;8529;48.108;-1.706;2022-07-04T14:39:14;2.65;;;0.82;;
16824;SDS011;8529;48.108;-1.706;2022-07-04T14:41:41;2.13;;;0.70;;
16824;SDS011;8529;48.108;-1.706;2022-07-04T14:44:08;2.83;;;0.57;;
16824;SDS011;8529;48.108;-1.706;2022-07-04T14:46:35;2.55;;;0.90;;
16824;SDS011;8529;48.108;-1.706;2022-07-04T14:49:02;2.63;;;0.95;;
16824;SDS011;8529;48.108;-1.706;2022-07-04T14:51:29;6.97;;;1.67;;
16824;SDS011;8529;48.108;-1.706;2022-07-04T14:53:57;4.95;;;1.40;;
16824;SDS011;8529;48.108;-1.706;2022-07-04T14:56:24;1.90;;;0.70;;
16824;SDS011;8529;48.108;-1.706;2022-07-04T14:58:51;0.77;;;0.60;;
16824;SDS011;8529;48.108;-1.706;2022-07-04T15:01:18;3.72;;;1.40;;
16824;SDS011;8529;48.108;-1.706;2022-07-04T15:03:45;1.50;;;0.75;;
16824;SDS011;8529;48.108;-1.706;2022-07-04T15:06:12;6.93;;;2.20;;
16824;SDS011;8529;48.108;-1.706;2022-07-04T15:08:39;10.57;;;3.20;;
16824;SDS011;8529;48.108;-1.706;2022-07-04T15:11:08;6.18;;;2.63;;
16824;SDS011;8529;48.108;-1.706;2022-07-04T15:13:34;2.75;;;0.80;;